createdAt,value
2023-04-17T00:00:50.385Z,99556.63
2023-04-17T00:03:22.990Z,99556.91
2023-04-17T00:05:56.835Z,99555.56
2023-04-17T00:08:28.506Z,99553.69
2023-04-17T00:11:07.290Z,99556.78
2023-04-17T00:13:40.445Z,99553.47
2023-04-17T00:16:13.860Z,99554.59
2023-04-17T00:18:45.774Z,99558.34
2023-04-17T00:21:17.508Z,99561.31
2023-04-17T00:23:49.636Z,99561.78
2023-04-17T00:26:21.357Z,99555.81
2023-04-17T00:28:53.909Z,99557.25
2023-04-17T00:31:25.756Z,99558.53
2023-04-17T00:33:58.854Z,99562.28
2023-04-17T00:36:31.917Z,99563.38
2023-04-17T00:39:03.659Z,99555.66
2023-04-17T00:41:35.373Z,99557.59
2023-04-17T00:44:07.155Z,99561.22
2023-04-17T00:46:39.161Z,99556.09
2023-04-17T00:49:11.173Z,99561.50
2023-04-17T00:51:43.118Z,99559.00
2023-04-17T00:54:15.381Z,99554.84
2023-04-17T00:56:47.247Z,99553.38
2023-04-17T00:59:19.044Z,99558.06
2023-04-17T01:01:51.677Z,99559.34
2023-04-17T01:04:24.051Z,99560.63
2023-04-17T01:06:56.214Z,99560.09
2023-04-17T01:09:28.087Z,99553.34
2023-04-17T01:12:35.921Z,99564.13
2023-04-17T01:15:07.963Z,99560.00
2023-04-17T01:17:39.775Z,99555.72
2023-04-17T01:20:11.927Z,99560.28
2023-04-17T01:22:43.674Z,99557.81
2023-04-17T01:25:15.420Z,99553.53
2023-04-17T01:27:50.165Z,99551.19
2023-04-17T01:30:21.798Z,99557.59
2023-04-17T01:33:00.220Z,99556.38
2023-04-17T01:35:31.948Z,99546.28
2023-04-17T01:38:03.833Z,99553.63
2023-04-17T01:40:35.812Z,99558.50
2023-04-17T01:43:07.547Z,99558.78
2023-04-17T01:45:39.240Z,99561.72
2023-04-17T01:48:10.974Z,99560.19
2023-04-17T01:50:43.749Z,99556.19
2023-04-17T01:53:15.554Z,99561.59
2023-04-17T01:55:49.733Z,99553.72
2023-04-17T01:58:21.468Z,99563.41
2023-04-17T02:00:53.178Z,99562.72
2023-04-17T02:03:25.125Z,99556.78
2023-04-17T02:05:56.914Z,99564.78
2023-04-17T02:08:29.788Z,99566.06
2023-04-17T02:11:03.620Z,99568.84
2023-04-17T02:13:36.341Z,99566.63
2023-04-17T02:16:09.576Z,99563.31
2023-04-17T02:18:41.491Z,99570.81
2023-04-17T02:21:13.183Z,99570.81
2023-04-17T02:23:44.967Z,99573.44
2023-04-17T02:26:16.673Z,99580.63
2023-04-17T02:28:52.073Z,99581.63
2023-04-17T02:31:24.303Z,99586.31
2023-04-17T02:33:56.039Z,99579.69
2023-04-17T02:36:28.310Z,99579.81
2023-04-17T02:39:00.161Z,99581.63
2023-04-17T02:41:31.977Z,99581.63
2023-04-17T02:44:03.779Z,99589.50
2023-04-17T02:46:35.913Z,99588.00
2023-04-17T02:49:08.182Z,99586.34
2023-04-17T02:51:41.080Z,99589.09
2023-04-17T02:54:12.863Z,99584.66
2023-04-17T02:56:44.844Z,99584.41
2023-04-17T02:59:16.686Z,99586.03
2023-04-17T03:01:48.517Z,99583.41
2023-04-17T03:04:23.195Z,99585.06
2023-04-17T03:06:55.080Z,99584.81
2023-04-17T03:09:27.602Z,99581.22
2023-04-17T03:11:59.825Z,99583.00
2023-04-17T03:14:31.572Z,99585.78
2023-04-17T03:17:03.269Z,99586.59
2023-04-17T03:19:35.401Z,99589.91
2023-04-17T03:22:07.255Z,99583.69
2023-04-17T03:24:38.989Z,99589.50
2023-04-17T03:27:10.987Z,99593.63
2023-04-17T03:29:46.736Z,99592.53
2023-04-17T03:32:19.221Z,99594.19
2023-04-17T03:34:51.457Z,99591.69
2023-04-17T03:37:23.147Z,99598.59
2023-04-17T03:39:55.729Z,99593.34
2023-04-17T03:42:29.883Z,99593.06
2023-04-17T03:45:03.342Z,99600.66
2023-04-17T03:47:35.464Z,99603.97
2023-04-17T03:50:08.420Z,99608.81
2023-04-17T03:52:45.406Z,99599.66
2023-04-17T03:55:17.521Z,99604.63
2023-04-17T03:57:51.754Z,99607.94
2023-04-17T04:00:26.102Z,99611.94
2023-04-17T04:03:03.895Z,99608.06
2023-04-17T04:05:42.865Z,99609.56
2023-04-17T04:08:15.832Z,99610.13
2023-04-17T04:10:54.460Z,99614.09
2023-04-17T04:13:33.960Z,99615.47
2023-04-17T04:16:08.324Z,99616.03
2023-04-17T04:18:43.425Z,99623.47
2023-04-17T04:21:16.950Z,99621.53
2023-04-17T04:23:51.044Z,99625.53
2023-04-17T04:26:25.163Z,99624.56
2023-04-17T04:29:00.222Z,99626.06
2023-04-17T04:31:52.763Z,99620.22
2023-04-17T04:34:30.027Z,99626.69
2023-04-17T04:37:02.260Z,99621.16
2023-04-17T04:40:10.718Z,99632.75
2023-04-17T04:42:49.736Z,99625.25
2023-04-17T04:45:26.837Z,99623.97
2023-04-17T04:47:59.178Z,99628.81
2023-04-17T04:50:31.217Z,99630.19
2023-04-17T04:53:06.508Z,99627.09
2023-04-17T04:55:46.786Z,99634.69
2023-04-17T04:58:18.995Z,99629.97
2023-04-17T05:00:52.381Z,99628.19
2023-04-17T05:03:37.349Z,99629.22
2023-04-17T05:06:13.783Z,99625.00
2023-04-17T05:08:52.881Z,99625.00
2023-04-17T05:11:24.621Z,99631.31
2023-04-17T05:13:56.532Z,99632.97
2023-04-17T05:16:34.514Z,99632.38
2023-04-17T05:19:06.354Z,99633.13
2023-04-17T05:22:04.271Z,99638.31
2023-04-17T05:24:40.094Z,99636.31
2023-04-17T05:27:11.803Z,99635.28
2023-04-17T05:29:43.633Z,99640.09
2023-04-17T05:32:15.454Z,99642.94
2023-04-17T05:34:58.463Z,99643.19
2023-04-17T05:37:32.444Z,99649.19
2023-04-17T05:40:07.262Z,99639.31
2023-04-17T05:42:39.465Z,99642.16
2023-04-17T05:45:21.449Z,99644.50
2023-04-17T05:47:54.657Z,99641.94
2023-04-17T05:50:26.594Z,99643.50
2023-04-17T05:52:58.573Z,99642.19
2023-04-17T05:55:33.954Z,99640.75
2023-04-17T05:58:16.824Z,99637.81
2023-04-17T06:00:56.090Z,99637.69
2023-04-17T06:03:28.831Z,99635.28
2023-04-17T06:06:08.768Z,99639.91
2023-04-17T06:08:41.028Z,99632.84
2023-04-17T06:11:13.094Z,99635.63
2023-04-17T06:13:44.837Z,99643.53
2023-04-17T06:16:16.923Z,99642.91
2023-04-17T06:18:51.824Z,99645.28
2023-04-17T06:21:23.671Z,99647.78
2023-04-17T06:23:59.161Z,99639.09
2023-04-17T06:26:30.932Z,99640.06
2023-04-17T06:29:02.624Z,99648.34
2023-04-17T06:31:37.187Z,99649.25
2023-04-17T06:34:09.401Z,99650.75
2023-04-17T06:36:45.624Z,99661.31
2023-04-17T06:39:20.073Z,99663.31
2023-04-17T06:41:52.395Z,99663.66
2023-04-17T06:44:31.282Z,99660.72
2023-04-17T06:47:05.883Z,99660.72
2023-04-17T06:49:37.690Z,99667.56
2023-04-17T06:52:09.478Z,99674.50
2023-04-17T06:54:41.246Z,99663.44
2023-04-17T06:57:13.018Z,99664.59
2023-04-17T06:59:44.736Z,99670.53
2023-04-17T07:02:16.708Z,99676.31
2023-04-17T07:04:48.651Z,99677.78
2023-04-17T07:07:21.189Z,99671.19
2023-04-17T07:09:52.904Z,99678.63
2023-04-17T07:12:24.750Z,99668.88
2023-04-17T07:14:56.477Z,99676.13
2023-04-17T07:17:28.203Z,99686.19
2023-04-17T07:19:59.930Z,99689.03
2023-04-17T07:22:31.825Z,99688.19
2023-04-17T07:25:04.653Z,99682.91
2023-04-17T07:27:38.355Z,99691.16
2023-04-17T07:30:10.449Z,99695.25
2023-04-17T07:32:42.350Z,99689.31
2023-04-17T07:35:14.108Z,99698.09
2023-04-17T07:37:45.872Z,99700.09
2023-04-17T07:40:18.128Z,99706.53
2023-04-17T07:42:49.859Z,99701.59
2023-04-17T07:45:21.942Z,99701.28
2023-04-17T07:47:53.841Z,99705.06
2023-04-17T07:50:25.820Z,99703.59
2023-04-17T07:52:58.475Z,99698.94
2023-04-17T07:55:30.203Z,99708.41
2023-04-17T07:58:03.962Z,99707.56
2023-04-17T08:00:35.833Z,99707.09
2023-04-17T08:03:07.962Z,99707.91
2023-04-17T08:05:40.347Z,99704.28
2023-04-17T08:08:12.077Z,99705.59
2023-04-17T08:10:43.854Z,99711.22
2023-04-17T08:13:15.721Z,99712.09
2023-04-17T08:15:47.472Z,99711.56
2023-04-17T08:18:19.190Z,99716.03
2023-04-17T08:20:51.048Z,99723.66
2023-04-17T08:23:22.886Z,99719.53
2023-04-17T08:25:58.368Z,99720.19
2023-04-17T08:28:30.285Z,99721.00
2023-04-17T08:31:02.060Z,99724.47
2023-04-17T08:33:33.788Z,99725.16
2023-04-17T08:36:08.016Z,99723.81
2023-04-17T08:38:42.133Z,99729.47
2023-04-17T08:41:21.934Z,99726.63
2023-04-17T08:43:54.484Z,99734.91
2023-04-17T08:46:27.384Z,99732.44
2023-04-17T08:48:59.199Z,99737.56
2023-04-17T08:51:31.821Z,99733.59
2023-04-17T08:54:03.636Z,99735.56
2023-04-17T08:56:35.362Z,99738.56
2023-04-17T08:59:07.281Z,99733.09
2023-04-17T09:01:39.065Z,99733.59
2023-04-17T09:04:11.245Z,99728.47
2023-04-17T09:06:54.193Z,99728.09
2023-04-17T09:09:26.539Z,99726.91
2023-04-17T09:12:11.386Z,99734.03
2023-04-17T09:14:43.173Z,99733.34
2023-04-17T09:17:19.174Z,99729.56
2023-04-17T09:20:20.084Z,99734.84
2023-04-17T09:23:03.368Z,99733.38
2023-04-17T09:25:35.162Z,99725.25
2023-04-17T09:28:13.395Z,99732.81
2023-04-17T09:30:45.172Z,99733.44
2023-04-17T09:33:17.169Z,99728.97
2023-04-17T09:35:51.002Z,99723.66
2023-04-17T09:38:38.480Z,99724.56
2023-04-17T09:41:30.043Z,99723.47
2023-04-17T09:44:05.464Z,99726.03
2023-04-17T09:46:40.651Z,99720.69
2023-04-17T09:49:27.537Z,99718.56
2023-04-17T09:51:59.783Z,99711.38
2023-04-17T09:54:33.111Z,99709.47
2023-04-17T09:57:08.580Z,99715.31
2023-04-17T09:59:41.930Z,99713.34
2023-04-17T10:02:16.426Z,99713.34
2023-04-17T10:04:48.254Z,99713.72
2023-04-17T10:07:20.016Z,99698.28
2023-04-17T10:09:51.760Z,99706.56
2023-04-17T10:12:23.826Z,99708.03
2023-04-17T10:14:55.789Z,99703.56
2023-04-17T10:17:32.516Z,99697.44
2023-04-17T10:20:23.053Z,99696.72
2023-04-17T10:22:56.335Z,99695.13
2023-04-17T10:25:29.703Z,99687.19
2023-04-17T10:28:02.263Z,99690.13
2023-04-17T10:30:54.617Z,99684.19
2023-04-17T10:33:27.449Z,99682.41
2023-04-17T10:35:59.253Z,99683.31
2023-04-17T10:38:33.190Z,99684.41
2023-04-17T10:41:09.276Z,99667.09
2023-04-17T10:43:44.091Z,99672.16
2023-04-17T10:46:15.827Z,99669.53
2023-04-17T10:48:56.468Z,99669.03
2023-04-17T10:51:29.038Z,99661.75
2023-04-17T10:54:02.640Z,99663.03
2023-04-17T10:56:47.329Z,99671.50
2023-04-17T10:59:19.512Z,99666.38
2023-04-17T11:01:52.922Z,99666.59
2023-04-17T11:04:31.295Z,99660.44
2023-04-17T11:07:03.228Z,99663.69
2023-04-17T11:09:34.938Z,99668.00
2023-04-17T11:12:06.840Z,99664.06
2023-04-17T11:14:40.661Z,99657.72
2023-04-17T11:17:12.430Z,99654.66
2023-04-17T11:19:46.395Z,99649.50
2023-04-17T11:22:19.341Z,99654.88
2023-04-17T11:24:51.771Z,99651.97
2023-04-17T11:27:23.447Z,99659.59
2023-04-17T11:29:55.357Z,99657.75
2023-04-17T11:32:27.134Z,99658.78
2023-04-17T11:34:58.964Z,99654.25
2023-04-17T11:37:30.690Z,99652.63
2023-04-17T11:40:10.230Z,99643.38
2023-04-17T11:42:45.869Z,99648.38
2023-04-17T11:45:19.904Z,99653.19
2023-04-17T11:47:52.544Z,99648.97
2023-04-17T11:50:29.154Z,99647.81
2023-04-17T11:53:02.059Z,99648.22
2023-04-17T11:55:35.143Z,99643.03
2023-04-17T11:58:08.353Z,99646.09
2023-04-17T12:00:41.212Z,99638.25
2023-04-17T12:03:36.029Z,99633.88
2023-04-17T12:06:08.829Z,99629.63
2023-04-17T12:08:53.428Z,99632.75
2023-04-17T12:11:33.083Z,99641.56
2023-04-17T12:14:12.277Z,99645.78
2023-04-17T12:16:44.251Z,99643.88
2023-04-17T12:19:22.483Z,99638.44
2023-04-17T12:21:54.597Z,99650.94
2023-04-17T12:24:26.511Z,99650.44
2023-04-17T12:27:01.807Z,99642.63
2023-04-17T12:29:43.744Z,99651.38
2023-04-17T12:32:16.661Z,99652.19
2023-04-17T12:34:48.409Z,99647.66
2023-04-17T12:37:20.369Z,99645.78
2023-04-17T12:39:52.089Z,99644.34
2023-04-17T12:42:23.863Z,99645.97
2023-04-17T12:44:55.696Z,99638.53
2023-04-17T12:47:27.534Z,99640.66
2023-04-17T12:49:59.280Z,99625.16
2023-04-17T12:52:31.322Z,99640.72
2023-04-17T12:55:04.454Z,99632.72
2023-04-17T12:57:36.713Z,99622.88
2023-04-17T13:00:09.615Z,99627.13
2023-04-17T13:02:41.700Z,99631.59
2023-04-17T13:05:13.504Z,99627.88
2023-04-17T13:07:46.340Z,99622.31
2023-04-17T13:10:18.196Z,99628.09
2023-04-17T13:12:50.000Z,99636.34
2023-04-17T13:15:21.914Z,99634.53
2023-04-17T13:17:53.890Z,99623.09
2023-04-17T13:20:25.881Z,99627.75
2023-04-17T13:22:58.959Z,99626.00
2023-04-17T13:25:31.704Z,99620.72
2023-04-17T13:28:03.843Z,99629.13
2023-04-17T13:30:37.243Z,99633.31
2023-04-17T13:33:09.329Z,99635.59
2023-04-17T13:35:41.457Z,99634.09
2023-04-17T13:38:13.340Z,99640.44
2023-04-17T13:40:45.130Z,99655.13
2023-04-17T13:43:19.175Z,99647.63
2023-04-17T13:45:52.760Z,99650.78
2023-04-17T13:48:26.030Z,99654.53
2023-04-17T13:50:57.858Z,99642.91
2023-04-17T13:53:29.554Z,99662.19
2023-04-17T13:56:01.327Z,99665.63
2023-04-17T13:58:36.109Z,99669.84
2023-04-17T14:01:08.939Z,99675.44
2023-04-17T14:03:43.001Z,99669.13
2023-04-17T14:06:19.368Z,99669.16
2023-04-17T14:08:50.975Z,99674.66
2023-04-17T14:11:24.324Z,99665.69
2023-04-17T14:13:56.263Z,99673.88
2023-04-17T14:16:28.468Z,99671.31
2023-04-17T14:19:12.310Z,99679.72
2023-04-17T14:21:45.430Z,99675.94
2023-04-17T14:24:17.234Z,99684.03
2023-04-17T14:26:48.952Z,99682.84
2023-04-17T14:29:21.253Z,99689.81
2023-04-17T14:31:53.306Z,99690.97
2023-04-17T14:34:25.352Z,99699.41
2023-04-17T14:36:58.279Z,99701.41
2023-04-17T14:39:31.555Z,99699.44
2023-04-17T14:42:03.516Z,99696.47
2023-04-17T14:44:35.375Z,99705.78
2023-04-17T14:47:07.483Z,99704.78
2023-04-17T14:49:39.347Z,99703.13
2023-04-17T14:52:11.019Z,99699.16
2023-04-17T14:54:42.820Z,99701.81
2023-04-17T14:57:14.630Z,99703.47
2023-04-17T14:59:46.329Z,99699.31
2023-04-17T15:02:18.117Z,99695.00
2023-04-17T15:04:51.783Z,99696.91
2023-04-17T15:07:23.492Z,99700.38
2023-04-17T15:09:56.455Z,99695.25
2023-04-17T15:12:28.234Z,99690.41
2023-04-17T15:15:00.090Z,99691.19
2023-04-17T15:17:32.074Z,99696.22
2023-04-17T15:20:05.429Z,99694.28
2023-04-17T15:22:37.147Z,99704.56
2023-04-17T15:25:09.139Z,99700.09
2023-04-17T15:27:40.858Z,99698.44
2023-04-17T15:30:13.371Z,99705.44
2023-04-17T15:32:45.334Z,99704.50
2023-04-17T15:35:17.231Z,99702.53
2023-04-17T15:37:48.909Z,99705.53
2023-04-17T15:40:21.368Z,99714.50
2023-04-17T15:42:53.116Z,99715.69
2023-04-17T15:45:26.198Z,99714.88
2023-04-17T15:48:00.955Z,99724.66
2023-04-17T15:50:33.129Z,99719.03
2023-04-17T15:53:05.853Z,99735.09
2023-04-17T15:55:38.537Z,99737.41
2023-04-17T15:58:10.671Z,99734.72
2023-04-17T16:00:42.426Z,99726.47
2023-04-17T16:03:14.605Z,99742.84
2023-04-17T16:05:46.645Z,99736.22
2023-04-17T16:08:18.390Z,99730.59
2023-04-17T16:10:50.276Z,99736.84
2023-04-17T16:13:21.915Z,99749.09
2023-04-17T16:15:53.647Z,99748.56
2023-04-17T16:18:25.359Z,99757.00
2023-04-17T16:20:57.121Z,99743.59
2023-04-17T16:23:29.791Z,99749.38
2023-04-17T16:26:01.577Z,99745.75
2023-04-17T16:28:36.414Z,99747.22
2023-04-17T16:31:08.609Z,99750.97
2023-04-17T16:33:40.770Z,99752.31
2023-04-17T16:36:13.028Z,99749.59
2023-04-17T16:38:45.873Z,99748.44
2023-04-17T16:41:18.666Z,99748.38
2023-04-17T16:43:50.405Z,99757.97
2023-04-17T16:46:35.495Z,99758.75
2023-04-17T16:49:16.712Z,99762.91
2023-04-17T16:51:48.437Z,99758.59
2023-04-17T16:54:21.679Z,99754.56
2023-04-17T16:56:53.423Z,99756.38
2023-04-17T16:59:25.180Z,99762.44
2023-04-17T17:01:57.063Z,99762.63
2023-04-17T17:04:28.893Z,99771.19
2023-04-17T17:07:00.803Z,99779.63
2023-04-17T17:09:32.581Z,99777.09
2023-04-17T17:12:04.621Z,99789.66
2023-04-17T17:14:36.397Z,99795.13
2023-04-17T17:17:08.320Z,99786.03
2023-04-17T17:19:40.062Z,99785.19
2023-04-17T17:22:11.941Z,99796.63
2023-04-17T17:24:43.707Z,99794.78
2023-04-17T17:27:15.738Z,99806.75
2023-04-17T17:29:47.512Z,99803.47
2023-04-17T17:32:22.507Z,99806.38
2023-04-17T17:34:54.513Z,99795.53
2023-04-17T17:37:27.486Z,99800.84
2023-04-17T17:39:59.248Z,99810.63
2023-04-17T17:42:32.422Z,99811.88
2023-04-17T17:45:06.112Z,99808.19
2023-04-17T17:47:38.079Z,99796.28
2023-04-17T17:50:11.106Z,99808.28
2023-04-17T17:52:43.712Z,99813.56
2023-04-17T17:55:16.122Z,99819.69
2023-04-17T17:57:49.667Z,99820.06
2023-04-17T18:00:21.728Z,99814.78
2023-04-17T18:02:55.719Z,99819.38
2023-04-17T18:05:27.456Z,99822.19
2023-04-17T18:07:59.281Z,99828.88
2023-04-17T18:10:33.692Z,99829.31
2023-04-17T18:13:05.934Z,99822.41
2023-04-17T18:15:37.794Z,99820.19
2023-04-17T18:18:10.297Z,99820.50
2023-04-17T18:20:42.158Z,99823.16
2023-04-17T18:23:18.427Z,99837.06
2023-04-17T18:26:01.030Z,99830.13
2023-04-17T18:28:33.133Z,99822.22
2023-04-17T18:31:04.907Z,99830.31
2023-04-17T18:33:36.892Z,99825.31
2023-04-17T18:36:09.034Z,99824.94
2023-04-17T18:38:40.901Z,99827.19
2023-04-17T18:41:12.721Z,99828.47
2023-04-17T18:43:44.801Z,99831.72
2023-04-17T18:46:21.689Z,99835.44
2023-04-17T18:48:53.511Z,99835.97
2023-04-17T18:51:26.130Z,99830.50
2023-04-17T18:53:57.875Z,99835.22
2023-04-17T18:56:30.343Z,99839.50
2023-04-17T18:59:02.873Z,99840.88
2023-04-17T19:01:34.766Z,99848.78
2023-04-17T19:04:09.293Z,99849.66
2023-04-17T19:06:43.882Z,99852.56
2023-04-17T19:09:15.642Z,99850.53
2023-04-17T19:11:47.653Z,99857.19
2023-04-17T19:14:19.370Z,99855.78
2023-04-17T19:16:52.058Z,99854.44
2023-04-17T19:19:28.397Z,99855.53
2023-04-17T19:22:01.110Z,99860.81
2023-04-17T19:24:34.499Z,99860.13
2023-04-17T19:27:06.384Z,99864.28
2023-04-17T19:29:40.243Z,99860.22
2023-04-17T19:32:13.196Z,99864.38
2023-04-17T19:34:45.054Z,99858.97
2023-04-17T19:37:16.819Z,99857.84
2023-04-17T19:39:48.606Z,99853.72
2023-04-17T19:42:20.469Z,99866.06
2023-04-17T19:44:52.276Z,99855.50
2023-04-17T19:47:24.493Z,99853.91
2023-04-17T19:49:56.414Z,99852.63
2023-04-17T19:52:29.055Z,99855.50
2023-04-17T19:55:01.522Z,99861.44
2023-04-17T19:57:35.524Z,99866.06
2023-04-17T20:00:08.580Z,99854.53
2023-04-17T20:02:44.625Z,99856.19
2023-04-17T20:05:18.155Z,99862.72
2023-04-17T20:07:50.787Z,99863.56
2023-04-17T20:10:22.646Z,99865.75
2023-04-17T20:12:54.415Z,99863.22
2023-04-17T20:15:26.098Z,99872.41
2023-04-17T20:17:57.849Z,99865.91
2023-04-17T20:20:29.768Z,99868.56
2023-04-17T20:23:01.678Z,99862.84
2023-04-17T20:25:33.576Z,99856.94
2023-04-17T20:28:05.626Z,99858.03
2023-04-17T20:30:37.398Z,99857.59
2023-04-17T20:33:09.225Z,99853.84
2023-04-17T20:35:42.315Z,99862.84
2023-04-17T20:38:14.534Z,99860.19
2023-04-17T20:40:46.209Z,99863.28
2023-04-17T20:43:18.115Z,99866.13
2023-04-17T20:45:50.173Z,99856.97
2023-04-17T20:48:22.111Z,99856.59
2023-04-17T20:50:53.857Z,99862.69
2023-04-17T20:53:25.624Z,99864.06
2023-04-17T20:55:58.000Z,99860.09
2023-04-17T20:58:29.803Z,99859.56
2023-04-17T21:01:02.593Z,99862.63
2023-04-17T21:03:34.432Z,99864.97
2023-04-17T21:06:06.448Z,99864.97
2023-04-17T21:08:41.308Z,99864.69
2023-04-17T21:11:12.980Z,99869.34
2023-04-17T21:13:44.733Z,99863.66
2023-04-17T21:16:16.526Z,99852.69
2023-04-17T21:18:48.310Z,99865.72
2023-04-17T21:21:20.017Z,99863.66
2023-04-17T21:23:51.928Z,99857.56
2023-04-17T21:26:23.680Z,99859.81
2023-04-17T21:28:57.365Z,99858.00
2023-04-17T21:31:29.153Z,99848.00
2023-04-17T21:34:00.930Z,99855.59
2023-04-17T21:36:32.841Z,99857.94
2023-04-17T21:39:04.596Z,99854.47
2023-04-17T21:41:38.999Z,99847.78
2023-04-17T21:44:11.012Z,99860.97
2023-04-17T21:46:48.719Z,99854.34
2023-04-17T21:49:21.089Z,99855.00
2023-04-17T21:51:52.754Z,99842.97
2023-04-17T21:54:26.734Z,99847.56
2023-04-17T21:56:58.433Z,99847.47
2023-04-17T21:59:30.773Z,99847.47
2023-04-17T22:02:03.899Z,99845.13
2023-04-17T22:04:35.784Z,99847.06
2023-04-17T22:07:09.101Z,99842.78
2023-04-17T22:09:40.750Z,99845.94
2023-04-17T22:12:20.748Z,99842.34
2023-04-17T22:14:52.556Z,99836.09
2023-04-17T22:17:24.268Z,99840.56
2023-04-17T22:19:56.191Z,99840.03
2023-04-17T22:22:27.901Z,99845.44
2023-04-17T22:24:59.578Z,99842.81
2023-04-17T22:27:31.295Z,99837.53
2023-04-17T22:30:04.119Z,99834.63
2023-04-17T22:32:38.628Z,99836.69
2023-04-17T22:35:10.489Z,99840.53
2023-04-17T22:37:42.330Z,99828.47
2023-04-17T22:40:14.098Z,99834.72
2023-04-17T22:42:45.773Z,99841.13
2023-04-17T22:45:17.539Z,99835.03
2023-04-17T22:47:49.269Z,99844.59
2023-04-17T22:50:21.872Z,99837.94
2023-04-17T22:52:53.597Z,99845.56
2023-04-17T22:55:25.306Z,99843.06
2023-04-17T22:57:56.963Z,99832.13
2023-04-17T23:00:31.890Z,99846.25
2023-04-17T23:03:03.664Z,99843.63
2023-04-17T23:05:37.785Z,99841.84
2023-04-17T23:08:09.468Z,99845.31
2023-04-17T23:10:41.156Z,99843.78
2023-04-17T23:13:12.933Z,99845.31
2023-04-17T23:15:44.729Z,99843.50
2023-04-17T23:18:16.469Z,99834.91
2023-04-17T23:20:48.155Z,99829.94
2023-04-17T23:23:20.119Z,99836.19
2023-04-17T23:25:54.899Z,99830.09
2023-04-17T23:28:30.434Z,99827.59
2023-04-17T23:31:05.862Z,99834.06
2023-04-17T23:33:37.597Z,99824.50
2023-04-17T23:36:09.376Z,99821.06
2023-04-17T23:38:41.104Z,99819.94
2023-04-17T23:41:12.830Z,99818.53
2023-04-17T23:43:47.236Z,99822.97
2023-04-17T23:46:18.973Z,99819.22
2023-04-17T23:48:50.832Z,99825.00
2023-04-17T23:51:22.575Z,99820.88
2023-04-17T23:53:54.473Z,99811.31
2023-04-17T23:56:28.970Z,99814.34
2023-04-17T23:59:00.716Z,99809.59
